Time;durP1;ratioP1;P1;durP2;ratioP2;P2;SDS_P1;SDS_P2;PMS_P1;PMS_P2;Temp;Humidity;BMP_temperature;BMP_pressure;BME280_temperature;BME280_humidity;BME280_pressure;Samples;Min_cycle;Max_cycle;Signal;HPM_P1;HPM_P2
2023/05/05 00:00:15;;;;;;;0.80;0.80;;;;;;;20.09;41.58;100834.47;5194910;28;20113;-81
2023/05/05 00:03:06;;;;;;;0.30;0.30;;;;;;;20.09;42.11;100834.47;5193081;28;20056;-80
2023/05/05 00:05:58;;;;;;;0.77;0.57;;;;;;;20.09;42.07;100845.13;5193539;28;20025;-80
2023/05/05 00:08:49;;;;;;;0.65;0.65;;;;;;;20.02;42.51;100839.38;5192290;28;20520;-81
2023/05/05 00:11:40;;;;;;;0.80;0.80;;;;;;;20.08;41.91;100843.44;5190893;28;20072;-81
2023/05/05 00:14:30;;;;;;;0.55;0.55;;;;;;;20.05;41.92;100844.47;5194113;28;20037;-81
2023/05/05 00:17:21;;;;;;;1.13;0.65;;;;;;;20.03;42.19;100842.88;5192979;28;20034;-81
2023/05/05 00:20:12;;;;;;;1.50;0.75;;;;;;;19.93;42.42;100829.31;5183745;28;20358;-81
2023/05/05 00:23:03;;;;;;;1.15;0.68;;;;;;;19.92;42.55;100835.59;5183322;28;20040;-81
2023/05/05 00:25:54;;;;;;;0.40;0.40;;;;;;;19.89;43.01;100841.09;5194924;28;20031;-81
2023/05/05 00:28:46;;;;;;;0.75;0.63;;;;;;;19.91;42.16;100839.19;5195398;28;20038;-81
2023/05/05 00:31:37;;;;;;;0.43;0.43;;;;;;;19.91;42.68;100847.19;5200051;28;20022;-81
2023/05/05 00:34:28;;;;;;;0.47;0.47;;;;;;;19.89;42.36;100844.63;5185624;28;20057;-80
2023/05/05 00:37:19;;;;;;;3.75;1.10;;;;;;;19.86;42.63;100850.16;5178762;28;20044;-81
2023/05/05 00:40:10;;;;;;;0.63;0.63;;;;;;;19.87;42.63;100845.69;5185853;28;20041;-80
2023/05/05 00:43:01;;;;;;;1.02;1.00;;;;;;;19.86;42.82;100849.31;5181705;28;20049;-81
2023/05/05 00:46:00;;;;;;;0.40;0.40;;;;;;;19.84;42.90;100840.53;5185072;28;20535;-81
2023/05/05 00:48:51;;;;;;;0.40;0.40;;;;;;;19.84;43.34;100836.03;5195382;28;20103;-80
2023/05/05 00:51:42;;;;;;;0.30;0.30;;;;;;;19.88;43.25;100847.38;5194322;28;20080;-81
2023/05/05 00:54:34;;;;;;;1.27;0.77;;;;;;;19.80;43.26;100842.53;5194111;28;20038;-81
2023/05/05 00:57:25;;;;;;;0.43;0.43;;;;;;;19.76;43.40;100843.66;5182840;28;20037;-80
2023/05/05 01:00:16;;;;;;;0.45;0.45;;;;;;;19.68;43.72;100846.81;5180243;28;20305;-81
2023/05/05 01:03:07;;;;;;;0.45;0.45;;;;;;;19.63;43.44;100848.91;5196929;28;20046;-80
2023/05/05 01:06:04;;;;;;;0.55;0.55;;;;;;;19.59;43.57;100855.38;5196161;28;20055;-80
2023/05/05 01:09:18;;;;;;;0.30;0.30;;;;;;;19.54;43.64;100855.69;5183114;28;20571;-81
2023/05/05 01:12:15;;;;;;;0.47;0.47;;;;;;;19.54;43.72;100845.03;5198330;28;20487;-81
2023/05/05 01:15:17;;;;;;;0.30;0.30;;;;;;;19.53;44.01;100848.66;5187133;28;20046;-81
2023/05/05 01:18:32;;;;;;;1.08;1.05;;;;;;;19.57;44.25;100849.31;5184232;28;20037;-81
2023/05/05 01:21:46;;;;;;;2.92;1.52;;;;;;;19.54;44.71;100838.88;5185894;28;20036;-81
2023/05/05 01:24:55;;;;;;;0.32;0.32;;;;;;;19.49;45.02;100844.47;5193184;28;20132;-81
2023/05/05 01:28:07;;;;;;;1.25;1.05;;;;;;;19.44;44.55;100847.44;5177147;28;20045;-80
2023/05/05 01:31:22;;;;;;;0.38;0.38;;;;;;;19.41;44.80;100850.25;5183382;28;20048;-81
2023/05/05 01:34:15;;;;;;;0.50;0.50;;;;;;;19.40;45.21;100853.03;5195121;28;20052;-80
2023/05/05 01:37:35;;;;;;;1.17;0.70;;;;;;;19.31;45.68;100855.31;5197638;28;20042;-81
2023/05/05 01:40:30;;;;;;;0.32;0.32;;;;;;;19.26;45.20;100851.22;5193121;28;20042;-81
2023/05/05 01:43:26;;;;;;;0.82;0.60;;;;;;;19.18;45.77;100855.22;5181406;28;20040;-82
2023/05/05 01:46:20;;;;;;;0.68;0.68;;;;;;;18.95;49.09;100853.09;5189591;28;20154;-81
2023/05/05 01:49:12;;;;;;;0.30;0.30;;;;;;;19.05;46.00;100864.03;5187925;28;20513;-81
2023/05/05 01:52:04;;;;;;;1.10;0.98;;;;;;;18.86;47.29;100860.66;5197112;28;20030;-81
2023/05/05 01:54:57;;;;;;;1.00;0.80;;;;;;;18.91;46.43;100859.50;5193654;28;20036;-81
2023/05/05 01:57:49;;;;;;;1.23;0.93;;;;;;;18.84;46.65;100867.84;5204182;28;20101;-81
2023/05/05 02:00:41;;;;;;;0.95;0.95;;;;;;;18.81;48.03;100867.19;5201026;28;20034;-80
2023/05/05 02:03:35;;;;;;;3.38;0.80;;;;;;;18.77;49.47;100876.28;5195693;28;20034;-81
2023/05/05 02:06:31;;;;;;;1.05;1.00;;;;;;;18.65;49.86;100877.84;5212069;28;20076;-80
2023/05/05 02:09:24;;;;;;;0.60;0.60;;;;;;;18.69;49.42;100880.25;5208107;28;20045;-80
2023/05/05 02:12:17;;;;;;;;;;;;;;;18.61;53.86;100886.97;5193076;28;20036;-80
2023/05/05 02:15:10;;;;;;;0.40;0.40;;;;;;;18.66;49.48;100891.06;5209015;28;19921;-81
2023/05/05 02:18:04;;;;;;;0.55;0.55;;;;;;;18.57;50.93;100886.28;5196219;28;20531;-81
2023/05/05 02:20:55;;;;;;;0.80;0.80;;;;;;;18.56;54.91;100888.06;5189361;28;20032;-81
2023/05/05 02:23:50;;;;;;;2.05;0.52;;;;;;;18.52;53.84;100894.53;5177715;28;20099;-81
2023/05/05 02:26:44;;;;;;;0.73;0.73;;;;;;;18.61;51.15;100894.94;5194412;28;20136;-81
2023/05/05 02:29:50;;;;;;;1.25;1.15;;;;;;;18.63;50.92;100890.41;5176646;28;20532;-81
2023/05/05 02:32:49;;;;;;;0.90;0.85;;;;;;;18.50;55.07;100896.41;5182310;28;20091;-81
2023/05/05 02:35:41;;;;;;;1.08;0.98;;;;;;;18.56;51.53;100890.72;5200082;28;20030;-80
2023/05/05 02:38:35;;;;;;;8.05;1.88;;;;;;;18.58;51.13;100889.78;5178516;28;20048;-81
2023/05/05 02:41:30;;;;;;;0.95;0.95;;;;;;;18.40;52.90;100892.56;5188681;28;20033;-81
2023/05/05 02:44:23;;;;;;;1.20;1.05;;;;;;;18.37;53.15;100893.59;5197088;28;20068;-82
2023/05/05 02:47:14;;;;;;;0.50;0.50;;;;;;;18.60;51.76;100898.53;5195269;28;20029;-82
2023/05/05 02:50:06;;;;;;;0.82;0.82;;;;;;;18.60;52.20;100890.56;5195158;28;20033;-82
2023/05/05 02:52:59;;;;;;;0.43;0.43;;;;;;;18.59;51.75;100897.69;5189026;28;20037;-82
2023/05/05 02:55:53;;;;;;;3.92;1.45;;;;;;;18.38;56.26;100903.28;5184737;28;20029;-81
2023/05/05 02:58:52;;;;;;;0.70;0.70;;;;;;;18.38;53.47;100902.44;5188347;28;20656;-80
2023/05/05 03:01:58;;;;;;;0.50;0.50;;;;;;;18.47;55.90;100895.72;5186363;28;20465;-80
2023/05/05 03:04:55;;;;;;;1.50;1.40;;;;;;;18.51;54.02;100898.13;5198660;28;20070;-81
2023/05/05 03:08:03;;;;;;;0.68;0.60;;;;;;;18.45;54.56;100902.91;5184247;28;20136;-81
2023/05/05 03:11:04;;;;;;;1.35;1.27;;;;;;;18.52;52.29;100898.97;5190403;28;20125;-81
2023/05/05 03:14:04;;;;;;;1.88;1.67;;;;;;;18.47;52.52;100899.22;5179336;28;20123;-81
2023/05/05 03:16:55;;;;;;;0.50;0.50;;;;;;;18.50;51.99;100904.38;5186082;28;20033;-81
2023/05/05 03:19:48;;;;;;;0.70;0.70;;;;;;;18.52;52.20;100902.50;5200313;28;20037;-81
2023/05/05 03:22:39;;;;;;;0.73;0.73;;;;;;;18.52;52.46;100907.81;5186606;28;20045;-82
2023/05/05 03:25:42;;;;;;;2.10;1.88;;;;;;;18.52;52.13;100899.84;5197544;28;20029;-81
2023/05/05 03:28:33;;;;;;;0.85;0.85;;;;;;;18.56;51.66;100903.16;5194674;28;20022;-80
2023/05/05 03:31:24;;;;;;;1.05;1.05;;;;;;;18.54;51.80;100908.59;5196994;28;20026;-80
2023/05/05 03:34:18;;;;;;;1.10;1.10;;;;;;;18.49;52.06;100905.31;5200158;28;20102;-81
2023/05/05 03:37:14;;;;;;;1.38;1.27;;;;;;;18.48;51.96;100908.91;5189267;28;20073;-80
2023/05/05 03:40:06;;;;;;;0.60;0.60;;;;;;;18.45;51.96;100911.75;5191694;28;20038;-80
2023/05/05 03:42:57;;;;;;;1.73;1.58;;;;;;;18.48;51.86;100908.91;5193380;28;20046;-80
2023/05/05 03:45:49;;;;;;;2.80;0.82;;;;;;;18.48;51.88;100911.56;5191471;28;20452;-79
2023/05/05 03:48:40;;;;;;;1.08;1.05;;;;;;;18.46;52.87;100916.13;5181752;28;20447;-79
2023/05/05 03:51:31;;;;;;;4.15;2.38;;;;;;;18.46;53.57;100915.25;5194181;28;20500;-80
2023/05/05 03:54:22;;;;;;;0.82;0.82;;;;;;;18.33;54.94;100915.09;5204899;28;20163;-80
2023/05/05 03:57:12;;;;;;;2.08;1.75;;;;;;;18.39;53.21;100914.75;5184125;28;20048;-80
2023/05/05 04:00:04;;;;;;;5.43;3.42;;;;;;;18.38;52.65;100924.53;5186148;28;20038;-80
2023/05/05 04:02:55;;;;;;;1.52;1.00;;;;;;;18.39;52.95;100946.63;5186202;28;20048;-79
2023/05/05 04:05:46;;;;;;;0.65;0.65;;;;;;;18.30;52.51;100939.19;5186206;28;20018;-80
2023/05/05 04:08:37;;;;;;;0.95;0.95;;;;;;;18.17;53.25;100947.84;5193933;28;20482;-80
2023/05/05 04:11:27;;;;;;;3.35;2.20;;;;;;;18.12;53.10;100943.72;5190834;28;20056;-80
2023/05/05 04:14:18;;;;;;;4.68;2.45;;;;;;;18.04;53.20;100945.00;5180509;28;20183;-80
2023/05/05 04:17:09;;;;;;;1.10;1.00;;;;;;;17.87;54.54;100953.88;5200307;28;20064;-80
2023/05/05 04:20:00;;;;;;;2.05;1.63;;;;;;;17.95;53.86;100958.75;5186129;28;20873;-81
2023/05/05 04:22:51;;;;;;;0.80;0.80;;;;;;;17.93;53.17;100948.22;5201238;28;20169;-81
2023/05/05 04:25:42;;;;;;;1.00;1.00;;;;;;;17.96;53.01;100954.34;5181462;28;20056;-81
2023/05/05 04:28:33;;;;;;;2.75;1.55;;;;;;;17.99;52.80;100946.19;5182032;28;20087;-81
2023/05/05 04:31:23;;;;;;;1.45;1.35;;;;;;;17.99;53.44;100951.50;5180626;28;20063;-82
2023/05/05 04:34:14;;;;;;;0.52;0.52;;;;;;;17.84;54.09;100951.38;5193589;28;20029;-81
2023/05/05 04:37:05;;;;;;;1.02;1.02;;;;;;;17.85;53.72;100957.56;5185655;28;20060;-81
2023/05/05 04:39:59;;;;;;;2.45;1.65;;;;;;;17.95;53.67;100953.44;5194219;28;20064;-81
2023/05/05 04:42:49;;;;;;;1.73;1.63;;;;;;;18.00;53.54;100953.22;5188548;28;20060;-81
2023/05/05 04:45:40;;;;;;;1.42;1.33;;;;;;;17.99;53.27;100955.03;5179890;28;20400;-81
2023/05/05 04:48:31;;;;;;;1.55;1.38;;;;;;;17.94;53.63;100965.88;5186992;28;20033;-81
2023/05/05 04:51:22;;;;;;;2.10;1.50;;;;;;;17.94;53.80;100970.28;5196634;28;20021;-79
2023/05/05 04:54:13;;;;;;;6.07;0.88;;;;;;;17.91;53.58;100971.31;5205698;28;20293;-80
2023/05/05 04:57:04;;;;;;;1.65;1.27;;;;;;;17.90;54.02;100976.72;5190432;28;20033;-82
2023/05/05 04:59:54;;;;;;;1.55;0.93;;;;;;;17.89;53.79;100977.66;5206114;28;20424;-82
2023/05/05 05:02:48;;;;;;;3.05;2.15;;;;;;;17.92;54.01;100981.00;5195583;28;20411;-81
2023/05/05 05:05:46;;;;;;;2.00;1.90;;;;;;;17.91;54.19;100979.28;5192397;28;20029;-82
2023/05/05 05:08:40;;;;;;;1.00;0.77;;;;;;;17.90;53.99;100982.88;5189611;28;20066;-82
2023/05/05 05:11:31;;;;;;;1.33;1.25;;;;;;;17.90;54.37;100982.03;5202936;28;20033;-82
2023/05/05 05:14:28;;;;;;;3.47;1.15;;;;;;;17.88;54.04;100982.13;5153753;28;20053;-81
2023/05/05 05:17:20;;;;;;;2.03;1.90;;;;;;;17.89;53.64;100986.47;5194750;28;20040;-81
2023/05/05 05:20:11;;;;;;;1.85;1.73;;;;;;;17.86;53.85;100986.66;5203192;28;20160;-81
2023/05/05 05:23:03;;;;;;;1.27;1.10;;;;;;;17.87;54.04;100992.81;5189776;28;20123;-81
2023/05/05 05:25:54;;;;;;;1.25;1.15;;;;;;;17.86;54.74;100991.97;5189771;28;20409;-81
2023/05/05 05:28:45;;;;;;;0.77;0.77;;;;;;;17.87;54.58;100988.38;5197240;28;20059;-81
2023/05/05 05:31:36;;;;;;;1.10;1.10;;;;;;;17.81;54.44;100987.84;5189796;28;20387;-81
2023/05/05 05:34:26;;;;;;;1.75;1.50;;;;;;;17.83;54.33;100996.56;5196648;28;20106;-81
2023/05/05 05:37:17;;;;;;;1.00;1.00;;;;;;;17.80;54.24;100991.41;5197014;28;20053;-81
2023/05/05 05:40:09;;;;;;;1.38;1.27;;;;;;;17.72;54.29;100994.50;5200552;28;21068;-81
2023/05/05 05:43:00;;;;;;;0.85;0.85;;;;;;;17.70;54.17;100996.38;5197210;28;20038;-81
2023/05/05 05:45:50;;;;;;;0.57;0.57;;;;;;;17.71;54.69;100996.28;5192147;28;20095;-82
2023/05/05 05:48:41;;;;;;;1.80;1.48;;;;;;;17.51;59.05;101007.94;5186376;28;20065;-81
2023/05/05 05:51:32;;;;;;;1.65;1.33;;;;;;;17.46;60.84;101012.63;5199477;28;20026;-81
2023/05/05 05:54:23;;;;;;;1.33;1.23;;;;;;;17.52;58.81;101019.41;5195213;28;20041;-81
2023/05/05 05:57:14;;;;;;;0.73;0.73;;;;;;;17.58;57.99;101016.44;5214510;28;20111;-81
2023/05/05 06:00:05;;;;;;;6.70;2.28;;;;;;;17.61;57.11;101009.19;5194561;28;20062;-81
2023/05/05 06:02:56;;;;;;;0.75;0.75;;;;;;;17.58;58.56;101014.63;5202925;28;20045;-81
2023/05/05 06:05:46;;;;;;;2.70;1.08;;;;;;;17.58;59.16;101014.63;5193174;28;20026;-81
2023/05/05 06:08:37;;;;;;;0.95;0.95;;;;;;;17.35;64.32;101015.84;5194892;28;20037;-81
2023/05/05 06:11:28;;;;;;;2.20;1.17;;;;;;;17.41;62.80;101012.00;5211556;28;20029;-81
2023/05/05 06:14:19;;;;;;;0.82;0.82;;;;;;;17.46;62.75;101000.22;5187933;28;20411;-81
2023/05/05 06:17:10;;;;;;;1.27;1.17;;;;;;;17.55;61.25;101004.19;5211142;28;20021;-83
2023/05/05 06:20:01;;;;;;;1.00;1.00;;;;;;;17.35;64.74;101014.97;5181576;28;20026;-81
2023/05/05 06:22:51;;;;;;;1.25;1.17;;;;;;;17.44;63.49;100998.59;5177181;28;20042;-81
2023/05/05 06:25:42;;;;;;;3.05;1.75;;;;;;;17.37;64.45;101010.44;5182853;28;20036;-81
2023/05/05 06:28:33;;;;;;;1.13;1.02;;;;;;;17.39;63.90;101012.09;5189336;28;20507;-81
2023/05/05 06:31:24;;;;;;;3.35;1.20;;;;;;;17.48;65.09;101010.72;5192187;28;20025;-82
2023/05/05 06:34:15;;;;;;;1.92;1.70;;;;;;;17.47;65.85;101022.31;5191086;28;20047;-81
2023/05/05 06:37:05;;;;;;;1.15;1.00;;;;;;;17.40;67.96;101020.88;5189331;28;20030;-82
2023/05/05 06:39:56;;;;;;;0.68;0.68;;;;;;;17.49;66.34;101019.56;5200457;28;20057;-81
2023/05/05 06:42:47;;;;;;;2.83;2.42;;;;;;;17.43;66.85;101020.72;5193944;28;20069;-81
2023/05/05 06:45:38;;;;;;;2.05;1.05;;;;;;;17.50;66.27;101029.25;5206467;28;20475;-81
2023/05/05 06:48:28;;;;;;;7.07;2.38;;;;;;;17.17;68.55;101041.47;5183383;28;20095;-82
2023/05/05 06:51:19;;;;;;;1.50;1.40;;;;;;;17.48;66.22;101045.22;5205092;28;20040;-82
2023/05/05 06:54:10;;;;;;;3.92;2.28;;;;;;;17.53;66.96;101048.50;5186396;28;20084;-82
2023/05/05 06:57:01;;;;;;;2.65;1.45;;;;;;;17.51;67.70;101049.53;5185840;28;20045;-82
2023/05/05 06:59:52;;;;;;;1.70;1.20;;;;;;;17.64;66.71;101049.75;5197953;28;20075;-82
2023/05/05 07:02:43;;;;;;;4.13;2.70;;;;;;;17.71;64.21;101053.81;5205222;28;20441;-82
2023/05/05 07:05:35;;;;;;;2.47;2.33;;;;;;;17.74;66.23;101040.38;5204140;28;20033;-81
2023/05/05 07:08:26;;;;;;;0.98;0.98;;;;;;;17.63;68.24;101035.63;5197244;28;20519;-83
2023/05/05 07:11:20;;;;;;;3.08;2.25;;;;;;;17.77;64.90;101042.88;5201958;28;20014;-82
2023/05/05 07:14:10;;;;;;;1.02;0.98;;;;;;;17.76;66.91;101038.50;5202353;28;20116;-82
2023/05/05 07:17:01;;;;;;;0.93;0.93;;;;;;;17.69;67.87;101050.38;5204219;28;20383;-82
2023/05/05 07:19:53;;;;;;;2.05;1.85;;;;;;;17.86;65.26;101049.47;5188639;28;20573;-83
2023/05/05 07:22:44;;;;;;;3.05;1.75;;;;;;;17.74;67.67;101058.94;5192162;28;20100;-83
2023/05/05 07:25:58;;;;;;;5.30;1.10;;;;;;;17.98;64.19;101054.19;5195563;28;20488;-83
2023/05/05 07:28:53;;;;;;;1.25;1.20;;;;;;;17.82;67.70;101053.25;5197130;28;20040;-84
2023/05/05 07:31:45;;;;;;;0.85;0.85;;;;;;;18.04;65.00;101053.00;5194588;28;20030;-83
2023/05/05 07:34:39;;;;;;;0.82;0.77;;;;;;;18.02;65.04;101061.03;5185160;28;20038;-82
2023/05/05 07:37:30;;;;;;;4.47;2.03;;;;;;;18.11;65.13;101065.03;5194302;28;20041;-82
2023/05/05 07:40:20;;;;;;;1.10;0.80;;;;;;;18.12;65.71;101057.91;5184695;28;20048;-83
2023/05/05 07:43:11;;;;;;;1.58;1.48;;;;;;;18.13;65.67;101063.16;5183548;28;20044;-83
2023/05/05 07:46:02;;;;;;;4.85;2.53;;;;;;;18.06;66.51;101067.03;5176110;28;20018;-83
2023/05/05 07:48:53;;;;;;;1.65;1.55;;;;;;;17.96;65.63;101060.53;5193805;28;20066;-83
2023/05/05 07:51:44;;;;;;;1.67;1.38;;;;;;;17.92;66.15;101060.66;5199123;28;20059;-83
2023/05/05 07:54:35;;;;;;;5.68;2.25;;;;;;;18.03;65.63;101072.53;5174842;28;20042;-83
2023/05/05 07:57:27;;;;;;;5.00;2.17;;;;;;;18.16;64.04;101068.28;5193020;28;20435;-83
2023/05/05 08:00:18;;;;;;;1.60;1.17;;;;;;;18.07;65.12;101064.31;5175255;28;20034;-83
2023/05/05 08:03:09;;;;;;;0.85;0.85;;;;;;;18.03;65.55;101061.91;5183246;28;20120;-83
2023/05/05 08:06:06;;;;;;;3.83;1.10;;;;;;;18.14;64.58;101064.84;5185097;28;20029;-83
2023/05/05 08:08:59;;;;;;;1.35;1.00;;;;;;;18.31;63.73;101071.03;5189890;28;20033;-84
2023/05/05 08:11:49;;;;;;;1.45;1.35;;;;;;;18.06;64.67;101062.59;5186612;28;20044;-84
2023/05/05 08:14:41;;;;;;;1.45;1.23;;;;;;;18.32;63.45;101062.13;5191039;28;20408;-82
2023/05/05 08:17:49;;;;;;;4.50;2.08;;;;;;;18.28;64.26;101072.06;5188061;28;20033;-82
2023/05/05 08:20:39;;;;;;;1.02;0.80;;;;;;;18.21;63.95;101058.28;5190669;28;20045;-82
2023/05/05 08:23:32;;;;;;;1.63;1.25;;;;;;;18.33;63.63;101071.81;5197402;28;20061;-81
2023/05/05 08:26:23;;;;;;;2.65;1.02;;;;;;;18.47;62.40;101055.13;5186840;28;20571;-81
2023/05/05 08:29:14;;;;;;;0.65;0.65;;;;;;;18.59;61.89;101049.16;5183279;28;20040;-83
2023/05/05 08:32:05;;;;;;;1.05;0.88;;;;;;;18.49;62.35;101059.41;5190902;28;20026;-81
2023/05/05 08:34:55;;;;;;;0.60;0.60;;;;;;;18.61;62.24;101057.03;5197330;28;20052;-81
2023/05/05 08:37:46;;;;;;;1.85;0.93;;;;;;;18.61;62.14;101049.91;5195784;28;20053;-81
2023/05/05 08:40:40;;;;;;;1.15;1.05;;;;;;;18.52;62.24;101048.63;5191439;28;20116;-81
2023/05/05 08:43:32;;;;;;;0.55;0.55;;;;;;;18.69;61.25;101054.81;5190728;28;20668;-81
2023/05/05 08:46:26;;;;;;;4.45;0.82;;;;;;;18.82;61.13;101061.13;5190449;28;20103;-81
2023/05/05 08:49:18;;;;;;;4.28;0.95;;;;;;;18.86;60.46;101059.16;5190793;28;20037;-81
2023/05/05 08:52:12;;;;;;;0.85;0.85;;;;;;;19.03;59.94;101060.91;5182487;28;20025;-82
2023/05/05 08:55:18;;;;;;;0.98;0.90;;;;;;;19.05;59.81;101061.66;5205649;28;20037;-80
2023/05/05 08:58:10;;;;;;;0.38;0.38;;;;;;;19.14;58.76;101050.47;5196471;28;20033;-81
2023/05/05 09:01:01;;;;;;;0.50;0.47;;;;;;;19.11;59.31;101063.97;5187626;28;20168;-81
2023/05/05 09:03:52;;;;;;;0.70;0.70;;;;;;;19.15;59.45;101052.19;5193368;28;20096;-82
2023/05/05 09:06:43;;;;;;;2.10;1.38;;;;;;;19.28;59.03;101060.31;5202081;28;20029;-81
2023/05/05 09:09:34;;;;;;;0.40;0.40;;;;;;;19.40;59.34;101065.88;5190641;28;20026;-81
2023/05/05 09:12:29;;;;;;;0.73;0.73;;;;;;;19.41;58.85;101062.28;5194624;28;20038;-82
2023/05/05 09:15:20;;;;;;;0.52;0.52;;;;;;;19.40;58.79;101064.06;5200684;28;20610;-81
2023/05/05 09:18:11;;;;;;;0.73;0.60;;;;;;;19.49;58.01;101060.88;5196002;28;20048;-82
2023/05/05 09:21:18;;;;;;;1.55;1.42;;;;;;;19.39;57.87;101065.00;5215451;28;20040;-82
2023/05/05 09:24:11;;;;;;;5.15;1.13;;;;;;;19.42;58.02;101074.63;5180572;28;20045;-82
2023/05/05 09:27:20;;;;;;;0.32;0.32;;;;;;;19.53;58.21;101066.03;5196951;28;20515;-82
2023/05/05 09:30:15;;;;;;;0.93;0.75;;;;;;;19.58;58.02;101058.59;5181492;28;20046;-82
2023/05/05 09:33:06;;;;;;;0.80;0.80;;;;;;;19.75;58.34;101061.13;5199080;28;20038;-83
2023/05/05 09:35:57;;;;;;;0.68;0.68;;;;;;;19.78;57.59;101060.94;5183521;28;20026;-81
2023/05/05 09:39:18;;;;;;;4.40;1.80;;;;;;;19.79;56.56;101059.97;5186102;28;20488;-82
2023/05/05 09:42:18;;;;;;;1.08;1.08;;;;;;;19.79;56.93;101062.63;5180781;28;20598;-82
2023/05/05 09:45:18;;;;;;;2.67;0.63;;;;;;;19.82;56.29;101065.09;5196046;28;20042;-82
2023/05/05 09:48:23;;;;;;;1.15;0.90;;;;;;;19.97;56.54;101062.50;5200612;28;20506;-83
2023/05/05 09:51:15;;;;;;;0.35;0.35;;;;;;;20.06;56.17;101061.09;5185719;28;20029;-82
2023/05/05 09:54:05;;;;;;;0.40;0.40;;;;;;;20.13;56.45;101055.25;5187149;28;20137;-82
2023/05/05 09:56:56;;;;;;;0.90;0.88;;;;;;;20.16;53.87;101053.38;5195274;28;20037;-82
2023/05/05 09:59:56;;;;;;;0.60;0.60;;;;;;;20.25;54.06;101053.63;5193034;28;20037;-82
2023/05/05 10:02:47;;;;;;;11.60;0.65;;;;;;;20.06;52.96;101037.94;5201025;28;20056;-82
2023/05/05 10:05:58;;;;;;;0.85;0.60;;;;;;;20.03;52.87;101035.50;5201422;28;21381;-83
2023/05/05 10:09:00;;;;;;;0.43;0.43;;;;;;;20.06;53.82;101027.31;5190779;28;20045;-83
2023/05/05 10:11:52;;;;;;;0.25;0.25;;;;;;;20.28;53.62;101023.31;5212969;28;20088;-81
2023/05/05 10:14:42;;;;;;;0.20;0.20;;;;;;;20.32;53.14;101019.47;5207635;28;20030;-83
2023/05/05 10:17:46;;;;;;;0.55;0.55;;;;;;;20.24;52.81;101005.78;5197645;28;20056;-83
2023/05/05 10:20:37;;;;;;;0.30;0.30;;;;;;;20.43;52.93;101008.13;5201698;28;20029;-83
2023/05/05 10:23:51;;;;;;;0.43;0.30;;;;;;;20.67;52.94;101020.81;5204334;28;20052;-83
2023/05/05 10:26:44;;;;;;;0.50;0.50;;;;;;;20.72;51.45;101024.91;5209624;28;20033;-83
2023/05/05 10:29:41;;;;;;;0.75;0.75;;;;;;;20.82;51.87;101024.34;5215744;28;20097;-83
2023/05/05 10:32:38;;;;;;;0.65;0.65;;;;;;;20.69;51.14;101030.47;5206699;28;20366;-82
2023/05/05 10:35:31;;;;;;;0.85;0.63;;;;;;;20.72;51.02;101030.22;5200474;28;20049;-83
2023/05/05 10:38:25;;;;;;;0.20;0.20;;;;;;;20.79;51.34;101035.19;5190581;28;20048;-83
2023/05/05 10:41:17;;;;;;;;;;;;;;;20.95;51.14;101035.91;5193599;28;20089;-83
2023/05/05 10:44:09;;;;;;;0.10;0.10;;;;;;;20.86;51.60;101034.72;5195026;28;19963;-83
2023/05/05 10:47:00;;;;;;;0.20;0.20;;;;;;;20.90;51.55;101032.69;5196061;28;20025;-84
2023/05/05 10:49:58;;;;;;;2.30;0.38;;;;;;;20.99;50.66;101036.56;5208012;28;20101;-83
2023/05/05 10:53:17;;;;;;;1.38;1.27;;;;;;;20.86;51.05;101032.03;5203882;28;20459;-83
2023/05/05 10:56:19;;;;;;;5.47;1.27;;;;;;;20.94;51.94;101031.53;5205466;28;20014;-83
2023/05/05 10:59:35;;;;;;;1.00;0.80;;;;;;;20.98;52.36;101030.38;5197620;28;20071;-82
2023/05/05 11:02:27;;;;;;;0.30;0.30;;;;;;;20.94;51.62;101031.53;5200311;28;20049;-82
2023/05/05 11:05:21;;;;;;;0.87;0.87;;;;;;;20.78;51.57;101031.69;5187764;28;20052;-82
2023/05/05 11:08:25;;;;;;;0.28;0.28;;;;;;;20.78;52.24;101026.34;5188816;28;20292;-83
2023/05/05 11:11:16;;;;;;;0.20;0.20;;;;;;;20.41;52.47;101021.56;5185917;28;20028;-82
2023/05/05 11:14:21;;;;;;;0.98;0.95;;;;;;;20.31;52.11;101017.75;5203816;28;20038;-83
2023/05/05 11:17:44;;;;;;;0.68;0.68;;;;;;;20.32;53.33;101013.31;5192795;28;20116;-83
2023/05/05 11:20:35;;;;;;;1.13;1.13;;;;;;;20.41;54.18;101013.56;5197659;28;20126;-82
2023/05/05 11:23:27;;;;;;;0.45;0.45;;;;;;;20.54;53.92;101013.63;5190239;28;20042;-82
2023/05/05 11:26:48;;;;;;;0.50;0.50;;;;;;;20.57;55.09;101008.13;5194679;28;20033;-82
2023/05/05 11:30:08;;;;;;;0.32;0.32;;;;;;;20.67;54.65;101010.16;5185947;28;20045;-82
2023/05/05 11:33:29;;;;;;;0.25;0.25;;;;;;;20.59;55.22;101008.84;5209703;28;20537;-83
2023/05/05 11:36:38;;;;;;;0.20;0.20;;;;;;;20.48;55.26;101021.16;5187149;28;20668;-83
2023/05/05 11:39:38;;;;;;;0.40;0.40;;;;;;;20.22;55.85;101027.22;5189862;28;20065;-82
2023/05/05 11:42:29;;;;;;;0.30;0.30;;;;;;;20.06;56.40;101027.31;5204054;28;20071;-81
2023/05/05 11:45:22;;;;;;;1.17;1.08;;;;;;;20.14;57.08;101029.50;5194217;28;20050;-84
2023/05/05 11:48:24;;;;;;;0.60;0.60;;;;;;;20.18;57.14;101024.84;5192652;28;20399;-84
2023/05/05 11:51:16;;;;;;;2.38;1.13;;;;;;;20.36;56.83;101018.34;5195129;28;20017;-84
2023/05/05 11:54:07;;;;;;;0.47;0.40;;;;;;;20.56;56.38;101008.19;5200342;28;20069;-84
2023/05/05 11:57:07;;;;;;;0.85;0.70;;;;;;;20.49;56.98;100996.22;5184080;28;20991;-83
2023/05/05 12:00:04;;;;;;;0.50;0.50;;;;;;;20.49;57.25;100990.88;5188795;28;20041;-83
2023/05/05 12:02:56;;;;;;;2.50;1.45;;;;;;;20.60;57.18;100993.72;5185435;28;20048;-83
2023/05/05 12:05:47;;;;;;;0.77;0.77;;;;;;;20.63;56.66;101011.31;5186617;28;20032;-83
2023/05/05 12:08:40;;;;;;;1.98;0.98;;;;;;;20.76;56.50;101009.59;5198031;28;20037;-85
2023/05/05 12:11:30;;;;;;;0.32;0.32;;;;;;;20.78;55.99;101014.84;5207120;28;20038;-84
2023/05/05 12:14:22;;;;;;;0.60;0.60;;;;;;;20.70;55.89;101007.31;5184178;28;20029;-84
2023/05/05 12:17:13;;;;;;;0.95;0.95;;;;;;;20.72;55.44;101014.25;5185563;28;20031;-83
2023/05/05 12:20:05;;;;;;;1.75;1.13;;;;;;;20.70;54.33;101005.47;5191981;28;20043;-83
2023/05/05 12:22:59;;;;;;;0.20;0.20;;;;;;;20.38;51.08;101010.25;5187090;28;20069;-83
2023/05/05 12:25:50;;;;;;;0.40;0.40;;;;;;;20.78;51.06;101004.19;5188066;28;20057;-85
2023/05/05 12:28:46;;;;;;;0.20;0.20;;;;;;;20.72;49.71;101008.91;5197783;28;20049;-83
2023/05/05 12:31:39;;;;;;;0.20;0.20;;;;;;;20.72;50.33;101008.91;5189653;28;20083;-84
2023/05/05 12:34:31;;;;;;;0.20;0.20;;;;;;;20.64;49.00;101005.03;5185271;28;20040;-81
2023/05/05 12:37:24;;;;;;;0.20;0.20;;;;;;;20.57;49.87;100996.56;5208023;28;20036;-84
2023/05/05 12:40:48;;;;;;;0.20;0.20;;;;;;;20.79;49.72;101000.53;5207622;28;20057;-83
2023/05/05 12:43:39;;;;;;;0.30;0.30;;;;;;;20.76;49.80;100993.59;5203594;28;20049;-84
2023/05/05 12:46:43;;;;;;;0.30;0.30;;;;;;;20.71;50.95;101009.84;5189928;28;20033;-83
2023/05/05 12:49:48;;;;;;;0.52;0.30;;;;;;;20.71;51.21;101006.34;5202497;28;20104;-83
2023/05/05 12:52:43;;;;;;;0.30;0.30;;;;;;;20.68;51.47;101010.06;5185747;28;20148;-83
2023/05/05 12:55:41;;;;;;;0.30;0.30;;;;;;;20.52;51.62;101009.38;5188167;28;20018;-83
2023/05/05 12:58:47;;;;;;;2.08;1.20;;;;;;;20.65;51.85;101020.09;5200641;28;20268;-83
2023/05/05 13:01:51;;;;;;;0.20;0.20;;;;;;;20.76;52.22;101009.59;5183786;28;20083;-83
2023/05/05 13:04:49;;;;;;;0.20;0.20;;;;;;;20.78;52.36;101010.34;5185658;28;20089;-83
2023/05/05 13:07:50;;;;;;;0.38;0.38;;;;;;;20.73;52.44;101005.31;5190613;28;20348;-82
2023/05/05 13:10:56;;;;;;;0.50;0.50;;;;;;;20.71;52.31;100996.53;5194662;28;20029;-83
2023/05/05 13:13:47;;;;;;;0.32;0.32;;;;;;;20.74;52.50;100993.69;5186230;28;20148;-83
2023/05/05 13:16:37;;;;;;;0.45;0.45;;;;;;;20.58;52.70;100992.97;5190102;28;20030;-83
2023/05/05 13:19:28;;;;;;;0.30;0.30;;;;;;;20.67;52.58;100988.81;5187650;28;20171;-83
2023/05/05 13:22:19;;;;;;;0.75;0.60;;;;;;;20.85;52.53;100987.66;5203940;28;20044;-84
2023/05/05 13:25:10;;;;;;;0.13;0.13;;;;;;;20.88;52.14;100989.25;5200738;28;20034;-83
2023/05/05 13:28:01;;;;;;;0.28;0.28;;;;;;;20.87;51.34;100985.75;5182845;28;20290;-84
2023/05/05 13:30:51;;;;;;;0.20;0.20;;;;;;;20.52;51.02;100980.88;5192521;28;20060;-83
2023/05/05 13:33:45;;;;;;;0.30;0.30;;;;;;;20.75;50.81;100974.09;5198416;28;20040;-83